QFA520 YSSY-YPAD
Flight info
| Callsign | QFA520 |
|---|---|
| Flight time | N/A |
| Altitude | 32000 |
| Route | GROOK1/16R KADOM H44 MAXEM Q60 KAKLU H309 AD |
| Aircraft | B738/M-SDE2E3FGHIRWXY/LB1 |
Departure
| Time | 2026-04-21 05:44 |
|---|---|
| Airport | Sydney Kingsford Smith International Airport (YSSY) |
Arrival
| Time | N/A |
|---|---|
| Airport | Adelaide International Airport (YPAD) |
| Time | Latitude | Longitude | Altitude | Speed | Heading |
|---|---|---|---|---|---|
| 2026-04-21 04:54 | -33.93170 | 151.17970 | 30 ft | 0 kts | 193° |
| 2026-04-21 05:32 | -33.93150 | 151.17977 | 30 ft | 4 kts | 199° |
| 2026-04-21 05:32 | -33.93125 | 151.17990 | 28 ft | 4 kts | 212° |
| 2026-04-21 05:32 | -33.93105 | 151.18009 | 28 ft | 4 kts | 234° |
| 2026-04-21 05:33 | -33.93096 | 151.18035 | 29 ft | 2 kts | 278° |
| 2026-04-21 05:33 | -33.93096 | 151.18037 | 29 ft | 0 kts | 279° |
| 2026-04-21 05:38 | -33.93093 | 151.18012 | 29 ft | 6 kts | 279° |
| 2026-04-21 05:39 | -33.93085 | 151.17951 | 30 ft | 8 kts | 279° |
| 2026-04-21 05:39 | -33.93077 | 151.17890 | 30 ft | 7 kts | 278° |
| 2026-04-21 05:39 | -33.93068 | 151.17831 | 30 ft | 7 kts | 280° |
| 2026-04-21 05:39 | -33.93059 | 151.17774 | 28 ft | 7 kts | 285° |
| 2026-04-21 05:40 | -33.93039 | 151.17722 | 29 ft | 7 kts | 299° |
| 2026-04-21 05:40 | -33.93019 | 151.17672 | 29 ft | 7 kts | 287° |
| 2026-04-21 05:40 | -33.93006 | 151.17603 | 29 ft | 9 kts | 282° |
| 2026-04-21 05:40 | -33.92995 | 151.17531 | 29 ft | 9 kts | 280° |
| 2026-04-21 05:41 | -33.92984 | 151.17458 | 26 ft | 11 kts | 280° |
| 2026-04-21 05:41 | -33.92965 | 151.17342 | 20 ft | 16 kts | 281° |
| 2026-04-21 05:41 | -33.92961 | 151.17315 | 19 ft | 0 kts | 281° |
| 2026-04-21 05:42 | -33.92958 | 151.17301 | 19 ft | 4 kts | 281° |
| 2026-04-21 05:42 | -33.92961 | 151.17238 | 21 ft | 11 kts | 251° |
| 2026-04-21 05:42 | -33.93021 | 151.17183 | 18 ft | 14 kts | 174° |
| 2026-04-21 05:43 | -33.93044 | 151.17188 | 18 ft | 0 kts | 168° |
| 2026-04-21 05:43 | -33.93049 | 151.17189 | 19 ft | 10 kts | 168° |
| 2026-04-21 05:43 | -33.93471 | 151.17298 | 15 ft | 112 kts | 167° |
| 2026-04-21 05:44 | -33.94497 | 151.17557 | 263 ft | 179 kts | 169° |
| 2026-04-21 05:44 | -33.95790 | 151.17874 | 1097 ft | 203 kts | 167° |
| 2026-04-21 05:44 | -33.97240 | 151.18211 | 1752 ft | 220 kts | 177° |
| 2026-04-21 05:44 | -33.98787 | 151.18026 | 2411 ft | 227 kts | 185° |
| 2026-04-21 05:45 | -34.00357 | 151.17808 | 3037 ft | 233 kts | 185° |
| 2026-04-21 05:45 | -34.01973 | 151.17593 | 3667 ft | 234 kts | 184° |
| 2026-04-21 05:45 | -34.03601 | 151.17743 | 4282 ft | 238 kts | 166° |
| 2026-04-21 05:45 | -34.05201 | 151.18310 | 4907 ft | 245 kts | 165° |
| 2026-04-21 05:46 | -34.06862 | 151.18881 | 5841 ft | 246 kts | 165° |
| 2026-04-21 05:46 | -34.08522 | 151.19443 | 6909 ft | 248 kts | 165° |
| 2026-04-21 05:46 | -34.10205 | 151.20007 | 7815 ft | 254 kts | 165° |
| 2026-04-21 05:46 | -34.11930 | 151.20584 | 8712 ft | 260 kts | 165° |
| 2026-04-21 05:47 | -34.13658 | 151.21162 | 9698 ft | 261 kts | 165° |
| 2026-04-21 05:47 | -34.15469 | 151.21766 | 10269 ft | 283 kts | 165° |
| 2026-04-21 05:47 | -34.17457 | 151.22402 | 10610 ft | 305 kts | 170° |
| 2026-04-21 05:47 | -34.19578 | 151.22325 | 11454 ft | 309 kts | 194° |
| 2026-04-21 05:48 | -34.21533 | 151.21207 | 12305 ft | 317 kts | 215° |
| 2026-04-21 05:48 | -34.23083 | 151.19310 | 13313 ft | 318 kts | 226° |
| 2026-04-21 05:48 | -34.24500 | 151.17206 | 14104 ft | 328 kts | 235° |
| 2026-04-21 05:48 | -34.25309 | 151.14587 | 14849 ft | 341 kts | 257° |
| 2026-04-21 05:49 | -34.25280 | 151.11691 | 15620 ft | 352 kts | 277° |
| 2026-04-21 05:49 | -34.24686 | 151.08800 | 16408 ft | 358 kts | 285° |
| 2026-04-21 05:49 | -34.23412 | 151.06161 | 17101 ft | 373 kts | 311° |
| 2026-04-21 05:49 | -34.21288 | 151.04325 | 17917 ft | 381 kts | 333° |
| 2026-04-21 05:50 | -34.18744 | 151.03423 | 18558 ft | 391 kts | 348° |
| 2026-04-21 05:50 | -34.16047 | 151.02870 | 19193 ft | 395 kts | 349° |
| 2026-04-21 05:50 | -34.13328 | 151.02301 | 19846 ft | 398 kts | 348° |
| 2026-04-21 05:50 | -34.10595 | 151.01668 | 20486 ft | 402 kts | 345° |
| 2026-04-21 05:51 | -34.07874 | 151.00793 | 21083 ft | 406 kts | 342° |
| 2026-04-21 05:51 | -34.05173 | 150.99718 | 21663 ft | 409 kts | 332° |
| 2026-04-21 05:51 | -34.02913 | 150.97689 | 22224 ft | 405 kts | 307° |
| 2026-04-21 05:51 | -34.01501 | 150.94809 | 22856 ft | 397 kts | 286° |
| 2026-04-21 05:52 | -34.00820 | 150.91601 | 23449 ft | 394 kts | 271° |
| 2026-04-21 05:52 | -34.00819 | 150.88313 | 23999 ft | 392 kts | 262° |
| 2026-04-21 05:52 | -34.01035 | 150.85032 | 24510 ft | 394 kts | 260° |
| 2026-04-21 05:52 | -34.01290 | 150.81781 | 25041 ft | 395 kts | 260° |
| 2026-04-21 05:53 | -34.01558 | 150.78472 | 25573 ft | 397 kts | 260° |
| 2026-04-21 05:53 | -34.01819 | 150.75148 | 26097 ft | 399 kts | 260° |
| 2026-04-21 05:53 | -34.02070 | 150.71810 | 26669 ft | 398 kts | 261° |
| 2026-04-21 05:53 | -34.02308 | 150.68498 | 27411 ft | 394 kts | 261° |
| 2026-04-21 05:54 | -34.02534 | 150.65250 | 28182 ft | 389 kts | 261° |
| 2026-04-21 05:54 | -34.02758 | 150.61988 | 28622 ft | 394 kts | 261° |
| 2026-04-21 05:54 | -34.02988 | 150.58643 | 28686 ft | 406 kts | 261° |
| 2026-04-21 05:54 | -34.03220 | 150.55245 | 28866 ft | 415 kts | 261° |
| 2026-04-21 05:55 | -34.03454 | 150.51761 | 29273 ft | 417 kts | 261° |
| 2026-04-21 05:55 | -34.03684 | 150.48271 | 29786 ft | 417 kts | 261° |
| 2026-04-21 05:55 | -34.03913 | 150.44779 | 30226 ft | 419 kts | 261° |
| 2026-04-21 05:55 | -34.04143 | 150.41269 | 30602 ft | 421 kts | 261° |
| 2026-04-21 05:56 | -34.04373 | 150.37748 | 30927 ft | 423 kts | 261° |
| 2026-04-21 05:56 | -34.04604 | 150.34204 | 31245 ft | 425 kts | 262° |
| 2026-04-21 05:56 | -34.04835 | 150.30645 | 31575 ft | 426 kts | 261° |
| 2026-04-21 05:56 | -34.05065 | 150.27068 | 31881 ft | 428 kts | 261° |
| 2026-04-21 05:57 | -34.05293 | 150.23526 | 32169 ft | 430 kts | 261° |
| 2026-04-21 05:57 | -34.05527 | 150.19877 | 32333 ft | 434 kts | 261° |
| 2026-04-21 05:57 | -34.05990 | 150.12610 | 32325 ft | 439 kts | 261° |
| 2026-04-21 05:58 | -34.06460 | 150.05169 | 32341 ft | 449 kts | 262° |
| 2026-04-21 05:58 | -34.06929 | 149.97627 | 32332 ft | 450 kts | 262° |
| 2026-04-21 05:59 | -34.07387 | 149.90160 | 32323 ft | 448 kts | 262° |
| 2026-04-21 06:00 | -34.08074 | 149.78886 | 32321 ft | 448 kts | 262° |
| 2026-04-21 06:00 | -34.08525 | 149.71382 | 32332 ft | 448 kts | 262° |
| 2026-04-21 06:01 | -34.08973 | 149.63871 | 32322 ft | 448 kts | 262° |
| 2026-04-21 06:01 | -34.09413 | 149.56414 | 32315 ft | 448 kts | 262° |
| 2026-04-21 06:02 | -34.09850 | 149.48921 | 32318 ft | 448 kts | 262° |
| 2026-04-21 06:02 | -34.10283 | 149.41417 | 32313 ft | 448 kts | 262° |
| 2026-04-21 06:03 | -34.10712 | 149.33916 | 32300 ft | 448 kts | 262° |
| 2026-04-21 06:03 | -34.11135 | 149.26410 | 32312 ft | 448 kts | 262° |
| 2026-04-21 06:04 | -34.11553 | 149.18956 | 32310 ft | 447 kts | 262° |
| 2026-04-21 06:04 | -34.11968 | 149.11464 | 32297 ft | 447 kts | 262° |
| 2026-04-21 06:05 | -34.12378 | 149.03970 | 32304 ft | 448 kts | 262° |
| 2026-04-21 06:05 | -34.12716 | 148.97732 | 32300 ft | 447 kts | 262° |
| 2026-04-21 06:06 | -34.13118 | 148.90228 | 32304 ft | 448 kts | 262° |
| 2026-04-21 06:06 | -34.13515 | 148.82718 | 32303 ft | 448 kts | 263° |
| 2026-04-21 06:07 | -34.13905 | 148.75263 | 32277 ft | 448 kts | 263° |
| 2026-04-21 06:07 | -34.14294 | 148.67758 | 32291 ft | 447 kts | 263° |
| 2026-04-21 06:08 | -34.14677 | 148.60255 | 32299 ft | 447 kts | 263° |
| 2026-04-21 06:08 | -34.15053 | 148.52805 | 32297 ft | 447 kts | 263° |
| 2026-04-21 06:09 | -34.15427 | 148.45317 | 32286 ft | 447 kts | 263° |
| 2026-04-21 06:09 | -34.15797 | 148.37816 | 32294 ft | 447 kts | 263° |
| 2026-04-21 06:10 | -34.16162 | 148.30320 | 32288 ft | 447 kts | 263° |
| 2026-04-21 06:10 | -34.16523 | 148.22814 | 32285 ft | 447 kts | 263° |
| 2026-04-21 06:11 | -34.16878 | 148.15318 | 32286 ft | 447 kts | 263° |
| 2026-04-21 06:11 | -34.17227 | 148.07877 | 32289 ft | 446 kts | 263° |
| 2026-04-21 06:12 | -34.17574 | 148.00378 | 32282 ft | 447 kts | 263° |
| 2026-04-21 06:12 | -34.17916 | 147.92877 | 32287 ft | 447 kts | 263° |
| 2026-04-21 06:13 | -34.18254 | 147.85373 | 32283 ft | 447 kts | 264° |
| 2026-04-21 06:13 | -34.18584 | 147.77935 | 32289 ft | 447 kts | 264° |
| 2026-04-21 06:14 | -34.18912 | 147.70434 | 32287 ft | 447 kts | 264° |
| 2026-04-21 06:14 | -34.19236 | 147.62938 | 32275 ft | 447 kts | 264° |
| 2026-04-21 06:15 | -34.19556 | 147.55426 | 32287 ft | 447 kts | 264° |
| 2026-04-21 06:15 | -34.19869 | 147.47944 | 32292 ft | 447 kts | 264° |
| 2026-04-21 06:16 | -34.20180 | 147.40441 | 32287 ft | 447 kts | 264° |
| 2026-04-21 06:16 | -34.20486 | 147.32930 | 32281 ft | 447 kts | 264° |
| 2026-04-21 06:17 | -34.20784 | 147.25482 | 32287 ft | 447 kts | 264° |
| 2026-04-21 06:17 | -34.21081 | 147.17989 | 32284 ft | 447 kts | 264° |
| 2026-04-21 06:18 | -34.21373 | 147.10477 | 32279 ft | 447 kts | 265° |
| 2026-04-21 06:18 | -34.21658 | 147.03021 | 32283 ft | 446 kts | 265° |
| 2026-04-21 06:19 | -34.21941 | 146.95532 | 32282 ft | 446 kts | 265° |
| 2026-04-21 06:19 | -34.22217 | 146.88076 | 32281 ft | 446 kts | 265° |
| 2026-04-21 06:20 | -34.22490 | 146.80579 | 32284 ft | 446 kts | 265° |
| 2026-04-21 06:20 | -34.22759 | 146.73078 | 32285 ft | 446 kts | 265° |
| 2026-04-21 06:21 | -34.23023 | 146.65584 | 32286 ft | 446 kts | 265° |
| 2026-04-21 06:21 | -34.23281 | 146.58135 | 32280 ft | 446 kts | 265° |
| 2026-04-21 06:22 | -34.23536 | 146.50638 | 32276 ft | 446 kts | 265° |
| 2026-04-21 06:22 | -34.23786 | 146.43152 | 32280 ft | 446 kts | 265° |
| 2026-04-21 06:23 | -34.24032 | 146.35650 | 32284 ft | 446 kts | 265° |
| 2026-04-21 06:23 | -34.24274 | 146.28152 | 32266 ft | 446 kts | 265° |
| 2026-04-21 06:24 | -34.24511 | 146.20653 | 32274 ft | 446 kts | 265° |
| 2026-04-21 06:24 | -34.24742 | 146.13224 | 32270 ft | 446 kts | 265° |
| 2026-04-21 06:25 | -34.25001 | 146.05732 | 32264 ft | 445 kts | 263° |
| 2026-04-21 06:25 | -34.25829 | 145.98325 | 32270 ft | 444 kts | 259° |
| 2026-04-21 06:26 | -34.26813 | 145.90960 | 32267 ft | 444 kts | 259° |
| 2026-04-21 06:26 | -34.27771 | 145.83583 | 32271 ft | 444 kts | 259° |
| 2026-04-21 06:27 | -34.28691 | 145.76196 | 32261 ft | 444 kts | 260° |
| 2026-04-21 06:27 | -34.29592 | 145.68803 | 32270 ft | 444 kts | 260° |
| 2026-04-21 06:28 | -34.30485 | 145.61418 | 32266 ft | 443 kts | 260° |
| 2026-04-21 06:28 | -34.31369 | 145.54078 | 32264 ft | 444 kts | 260° |
| 2026-04-21 06:29 | -34.32254 | 145.46693 | 32265 ft | 443 kts | 260° |
| 2026-04-21 06:29 | -34.33136 | 145.39303 | 32267 ft | 443 kts | 260° |
| 2026-04-21 06:30 | -34.34012 | 145.31919 | 32267 ft | 443 kts | 260° |
| 2026-04-21 06:30 | -34.34885 | 145.24526 | 32257 ft | 443 kts | 260° |
| 2026-04-21 06:31 | -34.35753 | 145.17132 | 32268 ft | 443 kts | 260° |
| 2026-04-21 06:31 | -34.36609 | 145.09801 | 32269 ft | 443 kts | 260° |
| 2026-04-21 06:32 | -34.37467 | 145.02415 | 32264 ft | 443 kts | 260° |
| 2026-04-21 06:32 | -34.38321 | 144.95027 | 32262 ft | 443 kts | 260° |
| 2026-04-21 06:33 | -34.39171 | 144.87630 | 32268 ft | 443 kts | 260° |
| 2026-04-21 06:33 | -34.40015 | 144.80245 | 32261 ft | 443 kts | 261° |
| 2026-04-21 06:34 | -34.40855 | 144.72862 | 32253 ft | 442 kts | 261° |
| 2026-04-21 06:34 | -34.41690 | 144.65472 | 32261 ft | 442 kts | 261° |
| 2026-04-21 06:35 | -34.42521 | 144.58084 | 32261 ft | 442 kts | 261° |
| 2026-04-21 06:35 | -34.43342 | 144.50735 | 32261 ft | 442 kts | 261° |
| 2026-04-21 06:36 | -34.44166 | 144.43330 | 32254 ft | 442 kts | 261° |
| 2026-04-21 06:36 | -34.44981 | 144.35959 | 32260 ft | 442 kts | 261° |
| 2026-04-21 06:37 | -34.45793 | 144.28574 | 32257 ft | 442 kts | 261° |
| 2026-04-21 06:37 | -34.46593 | 144.21248 | 32247 ft | 441 kts | 261° |
| 2026-04-21 06:38 | -34.47396 | 144.13868 | 32260 ft | 441 kts | 261° |
| 2026-04-21 06:38 | -34.48193 | 144.06486 | 32256 ft | 441 kts | 261° |
| 2026-04-21 06:39 | -34.48986 | 143.99107 | 32251 ft | 441 kts | 261° |
| 2026-04-21 06:39 | -34.49775 | 143.91723 | 32251 ft | 441 kts | 261° |
| 2026-04-21 06:40 | -34.50560 | 143.84334 | 32253 ft | 442 kts | 261° |
| 2026-04-21 06:40 | -34.51341 | 143.76938 | 32254 ft | 442 kts | 261° |
| 2026-04-21 06:41 | -34.52111 | 143.69598 | 32254 ft | 441 kts | 261° |
| 2026-04-21 06:41 | -34.52882 | 143.62209 | 32250 ft | 441 kts | 261° |
| 2026-04-21 06:42 | -34.53648 | 143.54825 | 32253 ft | 441 kts | 261° |
| 2026-04-21 06:42 | -34.54410 | 143.47434 | 32246 ft | 440 kts | 261° |
| 2026-04-21 06:43 | -34.55162 | 143.40100 | 32247 ft | 440 kts | 261° |
| 2026-04-21 06:43 | -34.55912 | 143.32729 | 32248 ft | 439 kts | 261° |
| 2026-04-21 06:44 | -34.56657 | 143.25378 | 32248 ft | 439 kts | 261° |
| 2026-04-21 06:44 | -34.57397 | 143.18022 | 32245 ft | 438 kts | 262° |
| 2026-04-21 06:45 | -34.58130 | 143.10694 | 32245 ft | 438 kts | 262° |
| 2026-04-21 06:45 | -34.58856 | 143.03388 | 32244 ft | 437 kts | 262° |
| 2026-04-21 06:46 | -34.59578 | 142.96073 | 32240 ft | 437 kts | 262° |
| 2026-04-21 06:46 | -34.60298 | 142.88745 | 32240 ft | 436 kts | 262° |
| 2026-04-21 06:47 | -34.61011 | 142.81436 | 32240 ft | 436 kts | 262° |
| 2026-04-21 06:47 | -34.61720 | 142.74120 | 32233 ft | 436 kts | 262° |
| 2026-04-21 06:48 | -34.62426 | 142.66794 | 32236 ft | 435 kts | 262° |
| 2026-04-21 06:48 | -34.62772 | 142.63183 | 31938 ft | 425 kts | 262° |
| 2026-04-21 06:48 | -34.63113 | 142.59614 | 31024 ft | 428 kts | 262° |
| 2026-04-21 06:48 | -34.63460 | 142.55988 | 29726 ft | 439 kts | 262° |
| 2026-04-21 06:49 | -34.63774 | 142.52250 | 28270 ft | 450 kts | 264° |
| 2026-04-21 06:49 | -34.64011 | 142.48426 | 26888 ft | 459 kts | 265° |
| 2026-04-21 06:49 | -34.64215 | 142.44526 | 25719 ft | 464 kts | 266° |
| 2026-04-21 06:49 | -34.64405 | 142.40667 | 25503 ft | 455 kts | 266° |
| 2026-04-21 06:50 | -34.64599 | 142.36809 | 25392 ft | 462 kts | 266° |
| 2026-04-21 06:50 | -34.64734 | 142.34202 | 25314 ft | 466 kts | 266° |
| 2026-04-21 06:50 | -34.64941 | 142.30320 | 25237 ft | 451 kts | 266° |
| 2026-04-21 06:50 | -34.65205 | 142.25450 | 25216 ft | 422 kts | 266° |
| 2026-04-21 06:51 | -34.65397 | 142.21971 | 25211 ft | 403 kts | 266° |
| 2026-04-21 06:51 | -34.65581 | 142.18636 | 25218 ft | 393 kts | 265° |
| 2026-04-21 06:51 | -34.65704 | 142.16395 | 25228 ft | 394 kts | 266° |
| 2026-04-21 06:51 | -34.65888 | 142.13054 | 25235 ft | 399 kts | 266° |
| 2026-04-21 06:52 | -34.66072 | 142.09681 | 25229 ft | 401 kts | 266° |
| 2026-04-21 06:52 | -34.66252 | 142.06357 | 25230 ft | 399 kts | 266° |
| 2026-04-21 06:52 | -34.66433 | 142.02999 | 25222 ft | 398 kts | 266° |
| 2026-04-21 06:52 | -34.66613 | 141.99649 | 25233 ft | 397 kts | 266° |
| 2026-04-21 06:53 | -34.66791 | 141.96303 | 25226 ft | 396 kts | 266° |
| 2026-04-21 06:53 | -34.66968 | 141.92964 | 25228 ft | 396 kts | 266° |
| 2026-04-21 06:53 | -34.67144 | 141.89623 | 25233 ft | 397 kts | 266° |
| 2026-04-21 06:53 | -34.67319 | 141.86281 | 25234 ft | 397 kts | 266° |
| 2026-04-21 06:54 | -34.67494 | 141.82928 | 25234 ft | 398 kts | 266° |
| 2026-04-21 06:54 | -34.67669 | 141.79563 | 25224 ft | 399 kts | 266° |
| 2026-04-21 06:54 | -34.67840 | 141.76234 | 25222 ft | 399 kts | 266° |
| 2026-04-21 06:54 | -34.68013 | 141.72867 | 25222 ft | 399 kts | 266° |
| 2026-04-21 06:55 | -34.68187 | 141.69455 | 25226 ft | 399 kts | 266° |
| 2026-04-21 06:55 | -34.68356 | 141.66127 | 25226 ft | 400 kts | 266° |
| 2026-04-21 06:55 | -34.68526 | 141.62759 | 25224 ft | 399 kts | 266° |
| 2026-04-21 06:55 | -34.68696 | 141.59381 | 25219 ft | 399 kts | 266° |
| 2026-04-21 06:56 | -34.68864 | 141.56009 | 25215 ft | 399 kts | 266° |
| 2026-04-21 06:56 | -34.69032 | 141.52639 | 25222 ft | 399 kts | 266° |
| 2026-04-21 06:56 | -34.69196 | 141.49318 | 25213 ft | 399 kts | 266° |
| 2026-04-21 06:56 | -34.69361 | 141.45943 | 25224 ft | 398 kts | 266° |
| 2026-04-21 06:57 | -34.69526 | 141.42578 | 25219 ft | 398 kts | 266° |
| 2026-04-21 06:57 | -34.69689 | 141.39213 | 25219 ft | 398 kts | 266° |
| 2026-04-21 06:57 | -34.69852 | 141.35843 | 25221 ft | 398 kts | 266° |
| 2026-04-21 06:57 | -34.70013 | 141.32486 | 25223 ft | 398 kts | 266° |
| 2026-04-21 06:58 | -34.70174 | 141.29121 | 25218 ft | 398 kts | 266° |